Portada
METAR-TAF:

METAR-TAF

Aeroports :

Mary, Turkmenistan

latitud: 37-36-24N, longitud: 061-54-05E, altitud: 222 m

Observació

L'informe es va fer fa 18 minuts, a les 08:00 UTC
Vent 10 kt del Nord-Oest
Temperatura 13°C
Humitat 38%
Pressió 1026 hPa
Visibilitat 10 km o més
sense núvols per sota de 1500 mi sense presència de cumulonimbus.

METAR: UTAM 120800Z 31010KT CAVOK 13/M01 Q1026 R88/CLRD70 NOSIG

Hora: 13:18 (08:18 UTC)

Pronòstic

L'informe es va fer fa 3 hores i 48 minuts, a les 04:30 UTC
Pronòstic vàlid del 12 a les 06 UTC al 13 a les 06 UTC
Vent 12 kt del Nord/Nord-Oest
Visibilitat 10 km o més
sense núvols per sota de 1500 mi sense presència de cumulonimbus.
Temporalment
l' 12 a les 06 UTC al 12 a les 12 UTC
Vent 10 kt del Nord/Nord-Est
Evolucionant progressivament
l' 12 a les 13 UTC al 12 a les 15 UTC
Vent 4 kt amb direcció variable
Visibilitat: 5000 m

TAF: UTAM 120430Z 1206/1306 33012KT CAVOK TEMPO 1206/1212 02010KT BECMG 1213/1215 VRB04KT 5000 NSC

Observacions i pronòstics meteorològics de més de 4000 aeroports (METAR i TAF).

Les estacions disponibles són els punts grocs i vermells al mapa.

Posi el ratolí al punt desitjat per veure el nom de l'estació.

Feu clic per veure les observacions i els pronòstics meteorològics.

Per canviar el mapa: feu clic els botons verds amb una creu de color negre per apropar; al botó verd amb un guió per allunyar la imatge; o en les fletxes verdes per a mapes adjacents.


METAR-TAF: